sensor_id;sensor_type;location;lat;lon;timestamp;P1;durP1;ratioP1;P2;durP2;ratioP2
22883;SDS011;13386;24.786;110.488;2023-09-30T11:34:30;34.53;;;13.30;;
22883;SDS011;13386;24.786;110.488;2023-09-30T11:37:01;32.67;;;13.13;;
22883;SDS011;13386;24.786;110.488;2023-09-30T11:39:32;40.67;;;13.85;;
22883;SDS011;13386;24.786;110.488;2023-09-30T11:42:02;39.15;;;14.27;;
22883;SDS011;13386;24.786;110.488;2023-09-30T11:44:46;45.33;;;14.45;;
22883;SDS011;13386;24.786;110.488;2023-09-30T11:47:28;41.13;;;15.40;;
22883;SDS011;13386;24.786;110.488;2023-09-30T11:50:02;45.80;;;17.05;;
22883;SDS011;13386;24.786;110.488;2023-09-30T11:52:34;38.40;;;15.70;;
22883;SDS011;13386;24.786;110.488;2023-09-30T11:55:07;45.25;;;16.20;;
22883;SDS011;13386;24.786;110.488;2023-09-30T11:57:39;44.58;;;16.85;;
22883;SDS011;13386;24.786;110.488;2023-09-30T12:00:10;46.97;;;17.15;;
22883;SDS011;13386;24.786;110.488;2023-09-30T12:02:42;45.97;;;16.88;;
22883;SDS011;13386;24.786;110.488;2023-09-30T12:05:13;42.15;;;15.68;;
22883;SDS011;13386;24.786;110.488;2023-09-30T12:07:44;45.05;;;17.13;;
22883;SDS011;13386;24.786;110.488;2023-09-30T12:10:14;102.22;;;33.08;;
22883;SDS011;13386;24.786;110.488;2023-09-30T12:12:47;113.22;;;37.80;;
22883;SDS011;13386;24.786;110.488;2023-09-30T12:15:19;124.47;;;40.22;;
22883;SDS011;13386;24.786;110.488;2023-09-30T12:17:53;125.75;;;39.22;;
22883;SDS011;13386;24.786;110.488;2023-09-30T12:20:28;128.40;;;42.13;;
22883;SDS011;13386;24.786;110.488;2023-09-30T12:22:58;127.75;;;40.15;;
22883;SDS011;13386;24.786;110.488;2023-09-30T12:25:42;129.45;;;40.17;;
22883;SDS011;13386;24.786;110.488;2023-09-30T12:28:15;123.05;;;39.22;;
22883;SDS011;13386;24.786;110.488;2023-09-30T12:30:47;128.05;;;42.10;;
22883;SDS011;13386;24.786;110.488;2023-09-30T12:33:21;115.00;;;35.33;;
22883;SDS011;13386;24.786;110.488;2023-09-30T12:35:53;97.38;;;34.10;;
22883;SDS011;13386;24.786;110.488;2023-09-30T12:38:23;90.10;;;32.22;;
22883;SDS011;13386;24.786;110.488;2023-09-30T12:40:54;72.25;;;25.73;;
22883;SDS011;13386;24.786;110.488;2023-09-30T12:43:32;57.65;;;22.20;;
22883;SDS011;13386;24.786;110.488;2023-09-30T12:46:02;57.35;;;20.27;;
22883;SDS011;13386;24.786;110.488;2023-09-30T12:48:36;51.70;;;20.27;;
22883;SDS011;13386;24.786;110.488;2023-09-30T12:51:08;56.15;;;20.08;;
22883;SDS011;13386;24.786;110.488;2023-09-30T12:53:39;64.38;;;19.92;;
22883;SDS011;13386;24.786;110.488;2023-09-30T12:56:10;46.65;;;18.27;;
22883;SDS011;13386;24.786;110.488;2023-09-30T12:58:42;52.20;;;19.23;;
22883;SDS011;13386;24.786;110.488;2023-09-30T13:01:14;49.63;;;18.90;;
22883;SDS011;13386;24.786;110.488;2023-09-30T13:03:44;50.15;;;20.23;;
22883;SDS011;13386;24.786;110.488;2023-09-30T13:06:20;42.28;;;16.73;;
22883;SDS011;13386;24.786;110.488;2023-09-30T13:09:05;34.53;;;13.13;;
22883;SDS011;13386;24.786;110.488;2023-09-30T13:11:35;31.15;;;13.52;;
22883;SDS011;13386;24.786;110.488;2023-09-30T13:14:08;27.58;;;10.93;;
22883;SDS011;13386;24.786;110.488;2023-09-30T13:16:40;27.60;;;11.15;;
22883;SDS011;13386;24.786;110.488;2023-09-30T13:19:14;26.45;;;10.82;;
22883;SDS011;13386;24.786;110.488;2023-09-30T13:21:51;23.40;;;9.98;;
22883;SDS011;13386;24.786;110.488;2023-09-30T13:24:23;25.00;;;10.18;;
22883;SDS011;13386;24.786;110.488;2023-09-30T13:26:57;23.48;;;10.18;;
22883;SDS011;13386;24.786;110.488;2023-09-30T13:29:37;23.25;;;9.85;;
22883;SDS011;13386;24.786;110.488;2023-09-30T13:32:13;26.27;;;9.80;;
22883;SDS011;13386;24.786;110.488;2023-09-30T13:37:24;22.83;;;9.68;;
22883;SDS011;13386;24.786;110.488;2023-09-30T13:40:00;26.50;;;10.93;;
22883;SDS011;13386;24.786;110.488;2023-09-30T13:42:33;21.60;;;10.35;;
22883;SDS011;13386;24.786;110.488;2023-09-30T13:45:05;24.52;;;10.70;;
22883;SDS011;13386;24.786;110.488;2023-09-30T13:47:36;24.60;;;11.18;;
22883;SDS011;13386;24.786;110.488;2023-09-30T13:50:07;24.10;;;10.88;;
22883;SDS011;13386;24.786;110.488;2023-09-30T13:52:46;23.90;;;10.48;;
22883;SDS011;13386;24.786;110.488;2023-09-30T13:55:19;24.15;;;10.48;;
22883;SDS011;13386;24.786;110.488;2023-09-30T13:57:49;26.70;;;10.82;;
22883;SDS011;13386;24.786;110.488;2023-09-30T14:00:20;25.67;;;10.30;;
22883;SDS011;13386;24.786;110.488;2023-09-30T14:02:55;32.47;;;11.30;;
22883;SDS011;13386;24.786;110.488;2023-09-30T14:08:01;24.25;;;10.77;;
22883;SDS011;13386;24.786;110.488;2023-09-30T14:10:34;25.80;;;11.00;;
22883;SDS011;13386;24.786;110.488;2023-09-30T14:13:08;26.85;;;11.02;;
22883;SDS011;13386;24.786;110.488;2023-09-30T14:15:46;22.98;;;9.75;;
22883;SDS011;13386;24.786;110.488;2023-09-30T14:18:21;21.55;;;9.18;;
22883;SDS011;13386;24.786;110.488;2023-09-30T14:20:52;19.25;;;8.90;;
22883;SDS011;13386;24.786;110.488;2023-09-30T14:23:31;24.85;;;10.30;;
22883;SDS011;13386;24.786;110.488;2023-09-30T14:26:09;20.25;;;9.63;;
22883;SDS011;13386;24.786;110.488;2023-09-30T14:28:45;25.75;;;9.73;;
22883;SDS011;13386;24.786;110.488;2023-09-30T14:31:19;22.98;;;9.32;;
22883;SDS011;13386;24.786;110.488;2023-09-30T14:33:55;18.95;;;8.70;;
22883;SDS011;13386;24.786;110.488;2023-09-30T14:36:25;24.02;;;9.35;;
22883;SDS011;13386;24.786;110.488;2023-09-30T14:39:03;23.98;;;9.05;;
22883;SDS011;13386;24.786;110.488;2023-09-30T14:41:44;22.17;;;9.93;;
22883;SDS011;13386;24.786;110.488;2023-09-30T14:44:16;29.38;;;9.52;;
22883;SDS011;13386;24.786;110.488;2023-09-30T14:46:51;23.13;;;9.30;;
22883;SDS011;13386;24.786;110.488;2023-09-30T14:49:24;22.88;;;9.73;;
22883;SDS011;13386;24.786;110.488;2023-09-30T14:51:56;21.23;;;9.18;;
22883;SDS011;13386;24.786;110.488;2023-09-30T14:54:35;20.50;;;8.68;;
22883;SDS011;13386;24.786;110.488;2023-09-30T14:57:13;21.20;;;8.35;;
22883;SDS011;13386;24.786;110.488;2023-09-30T14:59:46;20.63;;;8.07;;
22883;SDS011;13386;24.786;110.488;2023-09-30T15:02:18;20.45;;;8.90;;
22883;SDS011;13386;24.786;110.488;2023-09-30T15:04:48;20.20;;;8.43;;
22883;SDS011;13386;24.786;110.488;2023-09-30T15:07:19;21.08;;;9.20;;
22883;SDS011;13386;24.786;110.488;2023-09-30T15:10:07;20.80;;;8.88;;
22883;SDS011;13386;24.786;110.488;2023-09-30T15:12:38;19.10;;;8.45;;
22883;SDS011;13386;24.786;110.488;2023-09-30T15:15:25;22.00;;;8.60;;
22883;SDS011;13386;24.786;110.488;2023-09-30T15:17:56;24.50;;;9.90;;
22883;SDS011;13386;24.786;110.488;2023-09-30T15:20:28;21.13;;;9.02;;
22883;SDS011;13386;24.786;110.488;2023-09-30T15:22:59;23.08;;;9.32;;
22883;SDS011;13386;24.786;110.488;2023-09-30T15:25:40;26.23;;;9.35;;
22883;SDS011;13386;24.786;110.488;2023-09-30T15:28:16;22.30;;;9.55;;
22883;SDS011;13386;24.786;110.488;2023-09-30T15:30:50;24.65;;;9.75;;
22883;SDS011;13386;24.786;110.488;2023-09-30T15:33:26;19.38;;;9.73;;
22883;SDS011;13386;24.786;110.488;2023-09-30T15:35:59;21.10;;;9.85;;
22883;SDS011;13386;24.786;110.488;2023-09-30T15:38:32;24.15;;;9.95;;
22883;SDS011;13386;24.786;110.488;2023-09-30T15:41:13;24.05;;;10.25;;
22883;SDS011;13386;24.786;110.488;2023-09-30T15:43:44;19.98;;;8.98;;
22883;SDS011;13386;24.786;110.488;2023-09-30T15:46:18;25.40;;;9.32;;
22883;SDS011;13386;24.786;110.488;2023-09-30T15:48:48;21.08;;;9.07;;
22883;SDS011;13386;24.786;110.488;2023-09-30T15:51:29;22.05;;;9.82;;
22883;SDS011;13386;24.786;110.488;2023-09-30T15:53:59;27.00;;;9.65;;
22883;SDS011;13386;24.786;110.488;2023-09-30T15:56:44;18.15;;;8.57;;
22883;SDS011;13386;24.786;110.488;2023-09-30T15:59:15;25.02;;;8.48;;
22883;SDS011;13386;24.786;110.488;2023-09-30T16:01:46;21.92;;;8.98;;
22883;SDS011;13386;24.786;110.488;2023-09-30T16:04:18;17.65;;;7.90;;
22883;SDS011;13386;24.786;110.488;2023-09-30T16:06:51;21.25;;;8.23;;
22883;SDS011;13386;24.786;110.488;2023-09-30T16:09:22;19.77;;;8.05;;
22883;SDS011;13386;24.786;110.488;2023-09-30T16:11:55;17.38;;;7.97;;
22883;SDS011;13386;24.786;110.488;2023-09-30T16:14:30;17.80;;;7.70;;
22883;SDS011;13386;24.786;110.488;2023-09-30T16:17:01;19.80;;;8.50;;
22883;SDS011;13386;24.786;110.488;2023-09-30T16:19:33;21.95;;;8.70;;
22883;SDS011;13386;24.786;110.488;2023-09-30T16:22:04;22.65;;;8.60;;
22883;SDS011;13386;24.786;110.488;2023-09-30T16:24:39;21.75;;;8.55;;
22883;SDS011;13386;24.786;110.488;2023-09-30T16:27:21;21.33;;;8.90;;
22883;SDS011;13386;24.786;110.488;2023-09-30T16:29:51;19.98;;;8.40;;
22883;SDS011;13386;24.786;110.488;2023-09-30T16:32:31;20.38;;;8.45;;
22883;SDS011;13386;24.786;110.488;2023-09-30T16:35:04;18.55;;;8.75;;
22883;SDS011;13386;24.786;110.488;2023-09-30T16:37:40;21.58;;;8.18;;
22883;SDS011;13386;24.786;110.488;2023-09-30T16:40:11;19.17;;;8.60;;
22883;SDS011;13386;24.786;110.488;2023-09-30T16:42:50;20.58;;;8.80;;
22883;SDS011;13386;24.786;110.488;2023-09-30T16:45:23;18.77;;;8.77;;
22883;SDS011;13386;24.786;110.488;2023-09-30T16:47:58;22.00;;;8.55;;
22883;SDS011;13386;24.786;110.488;2023-09-30T16:50:29;22.65;;;8.77;;
22883;SDS011;13386;24.786;110.488;2023-09-30T16:52:59;21.20;;;8.85;;
22883;SDS011;13386;24.786;110.488;2023-09-30T16:55:51;23.63;;;8.32;;
22883;SDS011;13386;24.786;110.488;2023-09-30T16:58:31;18.67;;;8.13;;
22883;SDS011;13386;24.786;110.488;2023-09-30T17:01:09;16.77;;;7.90;;
22883;SDS011;13386;24.786;110.488;2023-09-30T17:03:54;21.75;;;8.10;;
22883;SDS011;13386;24.786;110.488;2023-09-30T17:06:25;28.92;;;8.70;;
22883;SDS011;13386;24.786;110.488;2023-09-30T17:09:00;20.63;;;8.48;;
22883;SDS011;13386;24.786;110.488;2023-09-30T17:11:33;18.98;;;8.18;;
22883;SDS011;13386;24.786;110.488;2023-09-30T17:14:08;20.15;;;8.30;;
22883;SDS011;13386;24.786;110.488;2023-09-30T17:16:40;20.05;;;8.00;;
22883;SDS011;13386;24.786;110.488;2023-09-30T17:19:12;23.00;;;7.68;;
22883;SDS011;13386;24.786;110.488;2023-09-30T17:21:45;19.25;;;7.90;;
22883;SDS011;13386;24.786;110.488;2023-09-30T17:24:16;19.58;;;8.63;;
22883;SDS011;13386;24.786;110.488;2023-09-30T17:27:00;20.63;;;8.20;;
22883;SDS011;13386;24.786;110.488;2023-09-30T17:29:35;19.55;;;8.43;;
22883;SDS011;13386;24.786;110.488;2023-09-30T17:32:29;14.25;;;7.70;;
22883;SDS011;13386;24.786;110.488;2023-09-30T17:35:00;20.25;;;8.07;;
22883;SDS011;13386;24.786;110.488;2023-09-30T17:37:34;19.60;;;8.20;;
22883;SDS011;13386;24.786;110.488;2023-09-30T17:40:09;18.80;;;8.30;;
22883;SDS011;13386;24.786;110.488;2023-09-30T17:42:49;18.95;;;8.40;;
22883;SDS011;13386;24.786;110.488;2023-09-30T17:45:24;17.83;;;7.75;;
22883;SDS011;13386;24.786;110.488;2023-09-30T17:47:55;23.17;;;8.50;;
22883;SDS011;13386;24.786;110.488;2023-09-30T17:50:28;17.95;;;8.48;;
22883;SDS011;13386;24.786;110.488;2023-09-30T17:52:59;18.33;;;8.00;;
22883;SDS011;13386;24.786;110.488;2023-09-30T17:55:29;18.05;;;8.20;;
22883;SDS011;13386;24.786;110.488;2023-09-30T17:58:00;19.25;;;8.23;;
22883;SDS011;13386;24.786;110.488;2023-09-30T18:00:37;17.55;;;8.45;;
22883;SDS011;13386;24.786;110.488;2023-09-30T18:03:09;20.67;;;8.65;;
22883;SDS011;13386;24.786;110.488;2023-09-30T18:08:12;24.17;;;8.52;;
22883;SDS011;13386;24.786;110.488;2023-09-30T18:10:42;22.45;;;8.50;;
22883;SDS011;13386;24.786;110.488;2023-09-30T18:13:13;18.33;;;8.13;;
22883;SDS011;13386;24.786;110.488;2023-09-30T18:15:46;22.95;;;8.88;;
22883;SDS011;13386;24.786;110.488;2023-09-30T18:18:16;19.92;;;8.80;;
22883;SDS011;13386;24.786;110.488;2023-09-30T18:20:47;18.95;;;9.07;;
22883;SDS011;13386;24.786;110.488;2023-09-30T18:23:17;22.30;;;8.60;;
22883;SDS011;13386;24.786;110.488;2023-09-30T18:25:51;17.63;;;8.73;;
22883;SDS011;13386;24.786;110.488;2023-09-30T18:28:24;20.83;;;8.38;;
22883;SDS011;13386;24.786;110.488;2023-09-30T18:30:57;27.08;;;9.32;;
22883;SDS011;13386;24.786;110.488;2023-09-30T18:33:31;21.75;;;8.95;;
22883;SDS011;13386;24.786;110.488;2023-09-30T18:36:01;22.75;;;8.85;;
22883;SDS011;13386;24.786;110.488;2023-09-30T18:38:37;20.48;;;9.15;;
22883;SDS011;13386;24.786;110.488;2023-09-30T18:41:12;22.42;;;8.80;;
22883;SDS011;13386;24.786;110.488;2023-09-30T18:43:43;20.10;;;9.02;;
22883;SDS011;13386;24.786;110.488;2023-09-30T18:46:15;20.83;;;8.68;;
22883;SDS011;13386;24.786;110.488;2023-09-30T18:48:46;22.17;;;8.95;;
22883;SDS011;13386;24.786;110.488;2023-09-30T18:51:19;19.70;;;8.55;;
22883;SDS011;13386;24.786;110.488;2023-09-30T18:53:53;20.60;;;9.00;;
22883;SDS011;13386;24.786;110.488;2023-09-30T18:56:23;19.45;;;7.80;;
22883;SDS011;13386;24.786;110.488;2023-09-30T18:58:53;19.55;;;8.10;;
22883;SDS011;13386;24.786;110.488;2023-09-30T19:01:25;20.63;;;8.52;;
22883;SDS011;13386;24.786;110.488;2023-09-30T19:03:56;18.48;;;8.35;;
22883;SDS011;13386;24.786;110.488;2023-09-30T19:06:28;19.77;;;8.10;;
22883;SDS011;13386;24.786;110.488;2023-09-30T19:09:01;19.90;;;8.32;;
22883;SDS011;13386;24.786;110.488;2023-09-30T19:11:33;20.83;;;8.40;;
22883;SDS011;13386;24.786;110.488;2023-09-30T19:14:04;18.85;;;7.93;;
22883;SDS011;13386;24.786;110.488;2023-09-30T19:16:36;16.90;;;7.88;;
22883;SDS011;13386;24.786;110.488;2023-09-30T19:19:06;24.67;;;8.80;;
22883;SDS011;13386;24.786;110.488;2023-09-30T19:21:36;20.10;;;8.00;;
22883;SDS011;13386;24.786;110.488;2023-09-30T19:24:06;18.27;;;7.68;;
22883;SDS011;13386;24.786;110.488;2023-09-30T19:26:37;18.38;;;8.38;;
22883;SDS011;13386;24.786;110.488;2023-09-30T19:29:08;18.15;;;8.23;;
22883;SDS011;13386;24.786;110.488;2023-09-30T19:31:40;18.17;;;7.88;;
22883;SDS011;13386;24.786;110.488;2023-09-30T19:34:10;19.65;;;7.90;;
22883;SDS011;13386;24.786;110.488;2023-09-30T19:36:40;19.17;;;8.45;;
22883;SDS011;13386;24.786;110.488;2023-09-30T19:39:10;22.23;;;8.13;;
22883;SDS011;13386;24.786;110.488;2023-09-30T19:41:40;21.70;;;8.57;;
22883;SDS011;13386;24.786;110.488;2023-09-30T19:44:10;20.27;;;8.32;;
22883;SDS011;13386;24.786;110.488;2023-09-30T19:46:42;22.58;;;8.75;;
22883;SDS011;13386;24.786;110.488;2023-09-30T19:49:13;19.77;;;8.27;;
22883;SDS011;13386;24.786;110.488;2023-09-30T19:51:46;20.33;;;8.43;;
22883;SDS011;13386;24.786;110.488;2023-09-30T19:54:16;21.73;;;8.82;;
22883;SDS011;13386;24.786;110.488;2023-09-30T19:56:47;19.83;;;8.75;;
22883;SDS011;13386;24.786;110.488;2023-09-30T19:59:17;17.27;;;8.25;;
22883;SDS011;13386;24.786;110.488;2023-09-30T20:01:49;20.35;;;8.15;;
22883;SDS011;13386;24.786;110.488;2023-09-30T20:04:19;21.85;;;8.65;;
22883;SDS011;13386;24.786;110.488;2023-09-30T20:06:49;18.50;;;8.32;;
22883;SDS011;13386;24.786;110.488;2023-09-30T20:09:20;18.52;;;8.20;;
22883;SDS011;13386;24.786;110.488;2023-09-30T20:11:51;21.15;;;8.73;;
22883;SDS011;13386;24.786;110.488;2023-09-30T20:14:23;21.10;;;8.48;;
22883;SDS011;13386;24.786;110.488;2023-09-30T20:16:55;23.33;;;8.98;;
22883;SDS011;13386;24.786;110.488;2023-09-30T20:19:25;24.63;;;8.95;;
22883;SDS011;13386;24.786;110.488;2023-09-30T20:21:57;23.55;;;8.50;;
22883;SDS011;13386;24.786;110.488;2023-09-30T20:24:27;25.63;;;9.02;;
22883;SDS011;13386;24.786;110.488;2023-09-30T20:26:58;23.80;;;8.95;;
22883;SDS011;13386;24.786;110.488;2023-09-30T20:29:28;22.20;;;8.98;;
22883;SDS011;13386;24.786;110.488;2023-09-30T20:32:00;21.90;;;8.93;;
22883;SDS011;13386;24.786;110.488;2023-09-30T20:34:30;18.55;;;8.38;;
22883;SDS011;13386;24.786;110.488;2023-09-30T20:37:00;20.15;;;8.52;;
22883;SDS011;13386;24.786;110.488;2023-09-30T20:39:30;24.13;;;9.38;;
22883;SDS011;13386;24.786;110.488;2023-09-30T20:42:00;19.10;;;9.02;;
22883;SDS011;13386;24.786;110.488;2023-09-30T20:44:30;26.50;;;9.40;;
22883;SDS011;13386;24.786;110.488;2023-09-30T20:47:02;24.33;;;9.70;;
22883;SDS011;13386;24.786;110.488;2023-09-30T20:49:33;25.52;;;9.45;;
22883;SDS011;13386;24.786;110.488;2023-09-30T20:52:04;22.77;;;9.00;;
22883;SDS011;13386;24.786;110.488;2023-09-30T20:54:34;25.27;;;9.73;;
22883;SDS011;13386;24.786;110.488;2023-09-30T20:57:05;25.35;;;9.50;;
22883;SDS011;13386;24.786;110.488;2023-09-30T20:59:35;27.77;;;10.07;;
22883;SDS011;13386;24.786;110.488;2023-09-30T21:02:07;24.35;;;9.82;;
22883;SDS011;13386;24.786;110.488;2023-09-30T21:04:38;26.05;;;10.13;;
22883;SDS011;13386;24.786;110.488;2023-09-30T21:07:09;24.70;;;10.52;;
22883;SDS011;13386;24.786;110.488;2023-09-30T21:09:39;25.02;;;10.45;;
22883;SDS011;13386;24.786;110.488;2023-09-30T21:12:12;24.90;;;9.90;;
22883;SDS011;13386;24.786;110.488;2023-09-30T21:14:42;25.95;;;10.65;;
22883;SDS011;13386;24.786;110.488;2023-09-30T21:17:14;20.85;;;9.55;;
22883;SDS011;13386;24.786;110.488;2023-09-30T21:19:44;21.10;;;9.65;;
22883;SDS011;13386;24.786;110.488;2023-09-30T21:22:14;24.48;;;9.98;;
22883;SDS011;13386;24.786;110.488;2023-09-30T21:24:45;22.70;;;10.20;;
22883;SDS011;13386;24.786;110.488;2023-09-30T21:27:15;26.50;;;10.32;;
22883;SDS011;13386;24.786;110.488;2023-09-30T21:29:45;22.83;;;9.27;;
22883;SDS011;13386;24.786;110.488;2023-09-30T21:32:17;22.13;;;9.80;;
22883;SDS011;13386;24.786;110.488;2023-09-30T21:34:47;21.52;;;9.18;;
22883;SDS011;13386;24.786;110.488;2023-09-30T21:37:17;25.48;;;9.82;;
22883;SDS011;13386;24.786;110.488;2023-09-30T21:39:47;19.98;;;9.45;;
22883;SDS011;13386;24.786;110.488;2023-09-30T21:42:17;23.88;;;9.88;;
22883;SDS011;13386;24.786;110.488;2023-09-30T21:44:48;26.85;;;9.77;;
22883;SDS011;13386;24.786;110.488;2023-09-30T21:47:20;25.65;;;9.82;;
22883;SDS011;13386;24.786;110.488;2023-09-30T21:49:50;26.98;;;10.57;;
22883;SDS011;13386;24.786;110.488;2023-09-30T21:52:20;41.08;;;15.25;;
22883;SDS011;13386;24.786;110.488;2023-09-30T21:54:50;70.90;;;27.40;;
22883;SDS011;13386;24.786;110.488;2023-09-30T21:57:21;54.25;;;20.83;;
22883;SDS011;13386;24.786;110.488;2023-09-30T21:59:51;46.53;;;17.40;;
22883;SDS011;13386;24.786;110.488;2023-09-30T22:02:23;43.60;;;17.75;;
22883;SDS011;13386;24.786;110.488;2023-09-30T22:04:53;35.47;;;14.23;;
22883;SDS011;13386;24.786;110.488;2023-09-30T22:07:24;26.33;;;11.15;;
22883;SDS011;13386;24.786;110.488;2023-09-30T22:09:58;27.85;;;11.43;;
22883;SDS011;13386;24.786;110.488;2023-09-30T22:12:29;25.98;;;11.27;;
22883;SDS011;13386;24.786;110.488;2023-09-30T22:15:00;29.30;;;11.75;;
22883;SDS011;13386;24.786;110.488;2023-09-30T22:17:34;27.88;;;11.63;;
22883;SDS011;13386;24.786;110.488;2023-09-30T22:20:06;26.05;;;11.40;;
22883;SDS011;13386;24.786;110.488;2023-09-30T22:22:37;26.10;;;11.48;;
22883;SDS011;13386;24.786;110.488;2023-09-30T22:25:09;27.08;;;11.98;;
22883;SDS011;13386;24.786;110.488;2023-09-30T22:27:40;26.35;;;11.68;;
22883;SDS011;13386;24.786;110.488;2023-09-30T22:30:11;35.38;;;15.60;;
22883;SDS011;13386;24.786;110.488;2023-09-30T22:32:45;31.85;;;12.43;;
22883;SDS011;13386;24.786;110.488;2023-09-30T22:35:16;30.33;;;12.45;;
22883;SDS011;13386;24.786;110.488;2023-09-30T22:37:46;32.75;;;11.85;;
22883;SDS011;13386;24.786;110.488;2023-09-30T22:40:16;31.10;;;11.80;;
22883;SDS011;13386;24.786;110.488;2023-09-30T22:42:46;29.92;;;12.25;;
22883;SDS011;13386;24.786;110.488;2023-09-30T22:45:17;30.08;;;11.90;;
22883;SDS011;13386;24.786;110.488;2023-09-30T22:47:49;33.08;;;12.13;;
22883;SDS011;13386;24.786;110.488;2023-09-30T22:50:20;30.90;;;12.50;;
22883;SDS011;13386;24.786;110.488;2023-09-30T22:52:50;24.95;;;11.25;;
22883;SDS011;13386;24.786;110.488;2023-09-30T22:55:22;31.23;;;11.65;;
22883;SDS011;13386;24.786;110.488;2023-09-30T22:57:53;26.77;;;12.23;;
22883;SDS011;13386;24.786;110.488;2023-09-30T23:00:23;28.77;;;13.00;;
22883;SDS011;13386;24.786;110.488;2023-09-30T23:02:56;36.40;;;12.90;;
22883;SDS011;13386;24.786;110.488;2023-09-30T23:05:27;39.47;;;15.25;;
22883;SDS011;13386;24.786;110.488;2023-09-30T23:07:57;42.20;;;17.10;;
22883;SDS011;13386;24.786;110.488;2023-09-30T23:10:27;43.05;;;18.08;;
22883;SDS011;13386;24.786;110.488;2023-09-30T23:12:58;45.20;;;19.00;;
22883;SDS011;13386;24.786;110.488;2023-09-30T23:15:29;45.28;;;18.10;;
22883;SDS011;13386;24.786;110.488;2023-09-30T23:18:01;44.92;;;18.23;;
22883;SDS011;13386;24.786;110.488;2023-09-30T23:20:31;46.22;;;16.75;;
22883;SDS011;13386;24.786;110.488;2023-09-30T23:23:01;42.55;;;16.85;;
22883;SDS011;13386;24.786;110.488;2023-09-30T23:25:33;41.05;;;16.98;;
22883;SDS011;13386;24.786;110.488;2023-09-30T23:28:04;39.75;;;16.63;;
22883;SDS011;13386;24.786;110.488;2023-09-30T23:30:37;39.75;;;16.67;;
22883;SDS011;13386;24.786;110.488;2023-09-30T23:33:09;42.67;;;16.98;;
22883;SDS011;13386;24.786;110.488;2023-09-30T23:35:39;49.25;;;17.45;;
22883;SDS011;13386;24.786;110.488;2023-09-30T23:38:10;44.55;;;18.17;;
22883;SDS011;13386;24.786;110.488;2023-09-30T23:40:41;45.42;;;18.90;;
22883;SDS011;13386;24.786;110.488;2023-09-30T23:43:11;50.45;;;20.17;;
22883;SDS011;13386;24.786;110.488;2023-09-30T23:45:43;50.63;;;20.95;;
22883;SDS011;13386;24.786;110.488;2023-09-30T23:48:16;51.25;;;21.08;;
22883;SDS011;13386;24.786;110.488;2023-09-30T23:50:47;55.67;;;19.85;;
22883;SDS011;13386;24.786;110.488;2023-09-30T23:53:20;53.25;;;20.13;;
22883;SDS011;13386;24.786;110.488;2023-09-30T23:55:50;54.30;;;20.88;;
22883;SDS011;13386;24.786;110.488;2023-09-30T23:58:21;49.20;;;18.90;;
